createdAt,value
2022-07-29T00:02:32.884Z,101427.25
2022-07-29T00:05:14.473Z,101420.56
2022-07-29T00:07:54.488Z,101416.69
2022-07-29T00:10:35.193Z,101415.69
2022-07-29T00:13:16.065Z,101412.81
2022-07-29T00:16:08.870Z,101414.31
2022-07-29T00:18:49.638Z,101399.69
2022-07-29T00:21:29.326Z,101405.41
2022-07-29T00:24:11.250Z,101402.56
2022-07-29T00:26:53.032Z,101406.25
2022-07-29T00:29:35.700Z,101393.56
2022-07-29T00:32:16.982Z,101399.75
2022-07-29T00:35:52.760Z,101383.81
2022-07-29T00:38:35.339Z,101386.09
2022-07-29T00:41:14.742Z,101387.00
2022-07-29T00:43:54.594Z,101393.13
2022-07-29T00:46:34.413Z,101389.13
2022-07-29T00:49:16.204Z,101382.75
2022-07-29T00:51:55.738Z,101381.78
2022-07-29T00:54:39.171Z,101380.78
2022-07-29T00:57:25.571Z,101376.78
2022-07-29T01:00:11.440Z,101373.28
2022-07-29T01:02:51.218Z,101372.72
2022-07-29T01:05:50.710Z,101364.69
2022-07-29T01:08:50.715Z,101355.63
2022-07-29T01:11:30.221Z,101354.97
2022-07-29T01:14:12.664Z,101353.97
2022-07-29T01:16:59.254Z,101351.47
2022-07-29T01:19:49.871Z,101350.88
2022-07-29T01:22:42.845Z,101342.81
2022-07-29T01:25:40.569Z,101344.31
2022-07-29T01:28:54.822Z,101345.72
2022-07-29T01:31:58.757Z,101329.97
2022-07-29T01:34:43.638Z,101337.84
2022-07-29T01:37:26.535Z,101330.59
2022-07-29T01:40:15.909Z,101330.97
2022-07-29T01:42:58.654Z,101332.66
2022-07-29T01:45:43.089Z,101325.94
2022-07-29T01:48:26.373Z,101330.66
2022-07-29T01:51:10.182Z,101329.34
2022-07-29T01:53:54.025Z,101327.03
2022-07-29T01:56:35.365Z,101322.13
2022-07-29T01:59:16.326Z,101322.69
2022-07-29T02:01:57.380Z,101320.56
2022-07-29T02:04:38.163Z,101323.03
2022-07-29T02:07:20.573Z,101318.38
2022-07-29T02:10:14.020Z,101316.53
2022-07-29T02:12:58.345Z,101320.41
2022-07-29T02:15:37.702Z,101311.72
2022-07-29T02:18:17.876Z,101309.69
2022-07-29T02:20:57.856Z,101308.66
2022-07-29T02:23:50.391Z,101305.63
2022-07-29T02:26:32.246Z,101309.63
2022-07-29T02:29:16.008Z,101302.63
2022-07-29T02:31:57.249Z,101305.34
2022-07-29T02:35:22.171Z,101299.28
2022-07-29T02:38:20.373Z,101295.94
2022-07-29T02:41:00.917Z,101296.44
2022-07-29T02:43:42.066Z,101301.34
2022-07-29T02:46:29.615Z,101298.00
2022-07-29T02:49:17.558Z,101299.84
2022-07-29T02:52:00.735Z,101298.66
2022-07-29T02:54:43.405Z,101298.84
2022-07-29T02:57:31.076Z,101298.66
2022-07-29T03:00:33.691Z,101298.53
2022-07-29T03:03:14.521Z,101300.72
2022-07-29T03:05:54.515Z,101291.81
2022-07-29T03:08:36.216Z,101286.25
2022-07-29T03:11:15.805Z,101284.25
2022-07-29T03:13:58.582Z,101288.59
2022-07-29T03:16:41.292Z,101283.06
2022-07-29T03:20:02.971Z,101286.75
2022-07-29T03:22:44.696Z,101289.78
2022-07-29T03:25:24.271Z,101290.91
2022-07-29T03:28:05.075Z,101286.25
2022-07-29T03:30:45.694Z,101275.38
2022-07-29T03:33:29.911Z,101271.84
2022-07-29T03:36:11.940Z,101265.00
2022-07-29T03:38:53.997Z,101271.19
2022-07-29T03:41:35.956Z,101276.91
2022-07-29T03:44:17.991Z,101276.56
2022-07-29T03:47:01.063Z,101286.16
2022-07-29T03:49:42.338Z,101287.97
2022-07-29T03:52:23.582Z,101290.00
2022-07-29T03:55:05.794Z,101292.84
2022-07-29T03:57:47.399Z,101282.00
2022-07-29T04:00:28.028Z,101288.16
2022-07-29T04:03:10.827Z,101294.72
2022-07-29T04:06:01.692Z,101288.22
2022-07-29T04:08:43.279Z,101293.88
2022-07-29T04:11:22.679Z,101288.72
2022-07-29T04:14:01.185Z,101288.50
2022-07-29T04:16:40.631Z,101288.69
2022-07-29T04:19:20.479Z,101300.06
2022-07-29T04:22:01.964Z,101293.56
2022-07-29T04:24:44.544Z,101296.09
2022-07-29T04:27:25.124Z,101295.03
2022-07-29T04:30:05.123Z,101289.00
2022-07-29T04:32:44.293Z,101291.22
2022-07-29T04:35:24.150Z,101298.72
2022-07-29T04:38:04.013Z,101295.72
2022-07-29T04:40:43.710Z,101296.72
2022-07-29T04:43:23.719Z,101291.34
2022-07-29T04:46:05.394Z,101296.72
2022-07-29T04:48:43.677Z,101295.38
2022-07-29T04:51:21.718Z,101295.72
2022-07-29T04:54:03.274Z,101292.19
2022-07-29T04:56:44.561Z,101295.53
2022-07-29T04:59:24.333Z,101300.06
2022-07-29T05:02:03.864Z,101293.19
2022-07-29T05:04:42.400Z,101292.84
2022-07-29T05:07:23.837Z,101306.09
2022-07-29T05:10:03.247Z,101303.75
2022-07-29T05:12:43.042Z,101302.25
2022-07-29T05:15:22.828Z,101302.56
2022-07-29T05:18:01.708Z,101298.69
2022-07-29T05:20:45.532Z,101296.34
2022-07-29T05:23:36.002Z,101297.19
2022-07-29T05:26:15.414Z,101295.31
2022-07-29T05:28:55.856Z,101296.34
2022-07-29T05:31:37.069Z,101290.91
2022-07-29T05:34:16.970Z,101294.59
2022-07-29T05:36:57.840Z,101284.44
2022-07-29T05:39:48.918Z,101287.56
2022-07-29T05:42:30.415Z,101285.97
2022-07-29T05:45:11.009Z,101287.16
2022-07-29T05:47:53.513Z,101292.09
2022-07-29T05:50:31.661Z,101294.50
2022-07-29T05:53:19.445Z,101296.06
2022-07-29T05:56:21.756Z,101301.38
2022-07-29T05:59:01.128Z,101298.13
2022-07-29T06:01:41.171Z,101297.38
2022-07-29T06:04:23.791Z,101296.00
2022-07-29T06:07:06.224Z,101301.13
2022-07-29T06:09:46.738Z,101292.38
2022-07-29T06:12:28.563Z,101289.59
2022-07-29T06:15:11.334Z,101280.38
2022-07-29T06:18:00.777Z,101282.63
2022-07-29T06:20:42.060Z,101285.47
2022-07-29T06:23:21.911Z,101277.00
2022-07-29T06:26:03.790Z,101278.22
2022-07-29T06:28:44.953Z,101288.44
2022-07-29T06:31:24.505Z,101287.56
2022-07-29T06:34:04.375Z,101289.97
2022-07-29T06:36:46.016Z,101286.75
2022-07-29T06:39:27.422Z,101285.28
2022-07-29T06:42:09.053Z,101281.69
2022-07-29T06:44:49.881Z,101284.28
2022-07-29T06:47:30.005Z,101288.44
2022-07-29T06:50:12.739Z,101283.38
2022-07-29T06:52:52.457Z,101274.44
2022-07-29T06:56:14.846Z,101274.81
2022-07-29T06:58:54.243Z,101279.16
2022-07-29T07:01:34.147Z,101277.66
2022-07-29T07:04:14.576Z,101270.66
2022-07-29T07:06:57.508Z,101273.03
2022-07-29T07:09:40.501Z,101288.19
2022-07-29T07:12:23.289Z,101288.94
2022-07-29T07:15:02.693Z,101289.69
2022-07-29T07:17:42.534Z,101294.56
2022-07-29T07:20:22.366Z,101287.88
2022-07-29T07:23:05.528Z,101288.63
2022-07-29T07:25:47.141Z,101295.25
2022-07-29T07:28:26.509Z,101289.84
2022-07-29T07:31:08.406Z,101295.31
2022-07-29T07:33:48.505Z,101289.66
2022-07-29T07:36:31.346Z,101287.28
2022-07-29T07:39:12.565Z,101293.78
2022-07-29T07:42:14.790Z,101292.28
2022-07-29T07:45:12.643Z,101291.66
2022-07-29T07:47:53.157Z,101286.81
2022-07-29T07:50:31.787Z,101284.00
2022-07-29T07:53:11.640Z,101282.50
2022-07-29T07:56:09.952Z,101271.88
2022-07-29T07:58:51.629Z,101276.59
2022-07-29T08:01:31.485Z,101281.41
2022-07-29T08:04:34.504Z,101281.22
2022-07-29T08:07:17.013Z,101285.78
2022-07-29T08:09:56.424Z,101277.75
2022-07-29T08:12:36.226Z,101281.69
2022-07-29T08:15:14.850Z,101290.75
2022-07-29T08:17:54.276Z,101283.41
2022-07-29T08:20:37.081Z,101278.22
2022-07-29T08:23:19.930Z,101281.63
2022-07-29T08:26:13.797Z,101282.72
2022-07-29T08:28:53.246Z,101281.22
2022-07-29T08:31:33.191Z,101272.75
2022-07-29T08:34:12.848Z,101278.34
2022-07-29T08:36:52.918Z,101273.41
2022-07-29T08:39:31.291Z,101278.34
2022-07-29T08:42:10.754Z,101279.13
2022-07-29T08:44:52.672Z,101280.06
2022-07-29T08:47:32.038Z,101270.31
2022-07-29T08:50:13.965Z,101270.31
2022-07-29T08:52:57.943Z,101272.19
2022-07-29T08:55:41.925Z,101274.09
2022-07-29T08:58:25.507Z,101266.81
2022-07-29T09:01:12.479Z,101268.91
2022-07-29T09:03:57.050Z,101271.41
2022-07-29T09:06:39.836Z,101263.94
2022-07-29T09:09:19.271Z,101274.34
2022-07-29T09:12:00.765Z,101261.28
2022-07-29T09:14:40.782Z,101268.13
2022-07-29T09:17:20.839Z,101269.38
2022-07-29T09:20:10.899Z,101273.09
2022-07-29T09:22:54.374Z,101271.88
2022-07-29T09:25:38.276Z,101275.56
2022-07-29T09:28:19.635Z,101270.34
2022-07-29T09:31:00.848Z,101274.47
2022-07-29T09:33:42.948Z,101271.63
2022-07-29T09:36:22.840Z,101270.97
2022-07-29T09:39:04.926Z,101268.16
2022-07-29T09:41:48.927Z,101262.19
2022-07-29T09:44:28.893Z,101265.22
2022-07-29T09:47:08.775Z,101271.69
2022-07-29T09:49:56.133Z,101276.50
2022-07-29T09:52:47.177Z,101269.69
2022-07-29T09:55:27.107Z,101266.06
2022-07-29T09:58:19.094Z,101260.81
2022-07-29T10:00:59.573Z,101265.44
2022-07-29T10:03:54.509Z,101258.50
2022-07-29T10:06:34.145Z,101254.59
2022-07-29T10:09:13.176Z,101254.56
2022-07-29T10:12:07.017Z,101250.53
2022-07-29T10:14:49.233Z,101250.13
2022-07-29T10:17:30.016Z,101247.63
2022-07-29T10:20:13.601Z,101250.81
2022-07-29T10:22:57.423Z,101248.25
2022-07-29T10:25:37.935Z,101246.31
2022-07-29T10:28:18.222Z,101246.75
2022-07-29T10:31:15.733Z,101240.56
2022-07-29T10:34:05.042Z,101235.19
2022-07-29T10:37:10.886Z,101232.91
2022-07-29T10:39:56.422Z,101231.50
2022-07-29T10:43:01.853Z,101232.84
2022-07-29T10:46:01.490Z,101227.94
2022-07-29T10:49:15.177Z,101233.44
2022-07-29T10:51:58.060Z,101237.25
2022-07-29T10:54:47.211Z,101232.06
2022-07-29T10:57:53.710Z,101229.72
2022-07-29T11:00:34.746Z,101230.28
2022-07-29T11:03:50.865Z,101224.66
2022-07-29T11:07:12.801Z,101229.09
2022-07-29T11:10:30.969Z,101228.13
2022-07-29T11:13:10.853Z,101228.75
2022-07-29T11:15:58.291Z,101230.38
2022-07-29T11:18:38.593Z,101223.81
2022-07-29T11:21:53.966Z,101234.38
2022-07-29T11:24:36.829Z,101227.88
2022-07-29T11:27:20.090Z,101226.22
2022-07-29T11:30:15.467Z,101224.34
2022-07-29T11:32:54.951Z,101217.50
2022-07-29T11:35:38.135Z,101227.19
2022-07-29T11:38:29.447Z,101227.22
2022-07-29T11:41:25.625Z,101224.00
2022-07-29T11:44:09.480Z,101218.44
2022-07-29T11:46:50.637Z,101211.88
2022-07-29T11:49:33.308Z,101220.91
2022-07-29T11:52:17.222Z,101207.81
2022-07-29T11:55:00.762Z,101205.56
2022-07-29T11:58:03.990Z,101198.72
2022-07-29T12:00:48.949Z,101201.25
2022-07-29T12:03:35.387Z,101202.47
2022-07-29T12:06:18.185Z,101198.31
2022-07-29T12:09:01.133Z,101202.94
2022-07-29T12:11:41.680Z,101200.22
2022-07-29T12:14:30.541Z,101203.28
2022-07-29T12:17:30.451Z,101187.78
2022-07-29T12:20:12.435Z,101193.69
2022-07-29T12:22:55.637Z,101186.25
2022-07-29T12:25:38.010Z,101181.03
2022-07-29T12:28:26.570Z,101182.69
2022-07-29T12:31:08.172Z,101177.34
2022-07-29T12:33:54.268Z,101185.44
2022-07-29T12:36:34.432Z,101182.56
2022-07-29T12:39:18.041Z,101182.16
2022-07-29T12:42:03.829Z,101183.66
2022-07-29T12:44:49.447Z,101179.50
2022-07-29T12:47:29.496Z,101174.22
2022-07-29T12:50:15.422Z,101179.41
2022-07-29T12:52:55.636Z,101180.91
2022-07-29T12:55:45.203Z,101176.00
2022-07-29T12:58:35.970Z,101165.69
2022-07-29T13:01:18.191Z,101168.31
2022-07-29T13:04:01.356Z,101170.28
2022-07-29T13:06:45.766Z,101170.09
2022-07-29T13:09:38.699Z,101165.75
2022-07-29T13:12:19.010Z,101162.78
2022-07-29T13:14:58.735Z,101163.03
2022-07-29T13:17:44.343Z,101161.44
2022-07-29T13:20:30.424Z,101154.03
2022-07-29T13:23:11.025Z,101147.16
2022-07-29T13:25:53.000Z,101144.97
2022-07-29T13:28:46.313Z,101143.75
2022-07-29T13:31:27.169Z,101146.19
2022-07-29T13:34:05.824Z,101146.38
2022-07-29T13:36:45.030Z,101139.22
2022-07-29T13:39:24.937Z,101134.47
2022-07-29T13:42:07.907Z,101133.50
2022-07-29T13:44:51.739Z,101132.91
2022-07-29T13:47:33.339Z,101132.19
2022-07-29T13:50:13.677Z,101129.13
2022-07-29T13:52:53.853Z,101123.47
2022-07-29T13:55:35.439Z,101128.69
2022-07-29T13:58:13.557Z,101118.50
2022-07-29T14:00:54.958Z,101109.34
2022-07-29T14:03:34.353Z,101111.91
2022-07-29T14:06:14.394Z,101111.91
2022-07-29T14:08:53.936Z,101117.56
2022-07-29T14:11:35.905Z,101114.38
2022-07-29T14:14:15.196Z,101118.00
2022-07-29T14:16:53.796Z,101113.97
2022-07-29T14:19:36.928Z,101120.16
2022-07-29T14:22:16.233Z,101111.53
2022-07-29T14:24:58.023Z,101110.66
2022-07-29T14:27:45.494Z,101105.28
2022-07-29T14:30:24.002Z,101107.69
2022-07-29T14:33:03.979Z,101100.00
2022-07-29T14:35:46.274Z,101106.75
2022-07-29T14:38:28.219Z,101099.13
2022-07-29T14:41:09.913Z,101100.81
2022-07-29T14:43:47.805Z,101098.59
2022-07-29T14:46:27.282Z,101096.34
2022-07-29T14:49:07.505Z,101094.63
2022-07-29T14:51:50.997Z,101089.22
2022-07-29T14:54:33.504Z,101087.88
2022-07-29T14:57:15.044Z,101086.16
2022-07-29T14:59:56.420Z,101085.72
2022-07-29T15:03:00.356Z,101082.00
2022-07-29T15:05:36.496Z,101080.22
2022-07-29T15:08:16.216Z,101072.13
2022-07-29T15:10:58.380Z,101079.84
2022-07-29T15:13:40.982Z,101078.47
2022-07-29T15:16:20.586Z,101078.97
2022-07-29T15:19:01.275Z,101075.09
2022-07-29T15:21:59.233Z,101077.63
2022-07-29T15:24:39.739Z,101079.78
2022-07-29T15:27:19.485Z,101079.66
2022-07-29T15:29:59.189Z,101068.59
2022-07-29T15:32:39.069Z,101071.81
2022-07-29T15:35:18.928Z,101073.59
2022-07-29T15:38:00.808Z,101075.97
2022-07-29T15:40:41.143Z,101068.78
2022-07-29T15:43:21.478Z,101064.41
2022-07-29T15:46:19.271Z,101064.09
2022-07-29T15:48:58.808Z,101057.78
2022-07-29T15:51:40.523Z,101057.72
2022-07-29T15:54:19.994Z,101057.84
2022-07-29T15:57:01.748Z,101053.22
2022-07-29T15:59:43.800Z,101052.00
2022-07-29T16:02:24.166Z,101042.72
2022-07-29T16:05:09.286Z,101043.78
2022-07-29T16:07:50.113Z,101047.25
2022-07-29T16:10:29.897Z,101043.38
2022-07-29T16:13:11.719Z,101037.53
2022-07-29T16:16:02.637Z,101042.47
2022-07-29T16:18:44.009Z,101038.56
2022-07-29T16:21:25.836Z,101035.94
2022-07-29T16:24:09.321Z,101036.91
2022-07-29T16:26:50.297Z,101030.91
2022-07-29T16:29:34.130Z,101032.72
2022-07-29T16:32:14.083Z,101030.88
2022-07-29T16:34:54.484Z,101033.78
2022-07-29T16:37:37.104Z,101026.94
2022-07-29T16:40:18.590Z,101029.59
2022-07-29T16:42:58.061Z,101023.22
2022-07-29T16:45:45.525Z,101022.38
2022-07-29T16:48:26.076Z,101025.69
2022-07-29T16:51:04.311Z,101031.53
2022-07-29T16:53:44.830Z,101025.78
2022-07-29T16:56:25.091Z,101023.63
2022-07-29T16:59:04.902Z,101031.09
2022-07-29T17:01:44.734Z,101031.94
2022-07-29T17:04:27.401Z,101035.09
2022-07-29T17:07:07.541Z,101034.06
2022-07-29T17:09:47.293Z,101035.09
2022-07-29T17:12:25.995Z,101031.56
2022-07-29T17:15:04.925Z,101028.41
2022-07-29T17:17:55.407Z,101030.69
2022-07-29T17:20:36.561Z,101026.31
2022-07-29T17:23:15.938Z,101029.69
2022-07-29T17:25:55.803Z,101028.97
2022-07-29T17:28:34.400Z,101028.72
2022-07-29T17:31:13.922Z,101029.81
2022-07-29T17:33:57.104Z,101022.16
2022-07-29T17:36:42.045Z,101024.06
2022-07-29T17:39:21.626Z,101026.94
2022-07-29T17:42:03.124Z,101021.66
2022-07-29T17:44:43.052Z,101025.81
2022-07-29T17:47:21.014Z,101027.03
2022-07-29T17:50:00.431Z,101032.69
2022-07-29T17:52:40.810Z,101029.63
2022-07-29T17:55:45.155Z,101030.13
2022-07-29T17:58:38.856Z,101032.03
2022-07-29T18:01:18.123Z,101041.09
2022-07-29T18:04:00.544Z,101039.22
2022-07-29T18:06:40.075Z,101048.44
2022-07-29T18:09:19.802Z,101045.34
2022-07-29T18:11:59.503Z,101042.31
2022-07-29T18:14:38.489Z,101043.59
2022-07-29T18:17:18.345Z,101052.44
2022-07-29T18:19:58.947Z,101052.31
2022-07-29T18:22:37.747Z,101051.13
2022-07-29T18:25:19.473Z,101046.34
2022-07-29T18:28:00.727Z,101054.84
2022-07-29T18:30:44.968Z,101062.91
2022-07-29T18:33:23.149Z,101066.78
2022-07-29T18:36:10.563Z,101071.81
2022-07-29T18:38:52.772Z,101074.00
2022-07-29T18:41:32.254Z,101075.38
2022-07-29T18:44:11.756Z,101084.13
2022-07-29T18:46:53.454Z,101089.22
2022-07-29T18:49:33.189Z,101089.16
2022-07-29T18:52:12.388Z,101092.75
2022-07-29T18:54:51.270Z,101084.25
2022-07-29T18:57:55.246Z,101084.25
2022-07-29T19:00:33.068Z,101085.53
2022-07-29T19:03:12.746Z,101090.88
2022-07-29T19:05:51.320Z,101079.66
2022-07-29T19:08:29.428Z,101086.44
2022-07-29T19:11:09.062Z,101091.69
2022-07-29T19:13:49.871Z,101089.28
2022-07-29T19:16:32.508Z,101096.22
2022-07-29T19:19:14.420Z,101095.88
2022-07-29T19:21:55.541Z,101105.38
2022-07-29T19:24:35.931Z,101115.69
2022-07-29T19:27:15.744Z,101127.44
2022-07-29T19:29:58.927Z,101137.13
2022-07-29T19:32:37.621Z,101138.09
2022-07-29T19:35:31.018Z,101149.66
2022-07-29T19:38:09.756Z,101149.94
2022-07-29T19:40:49.237Z,101159.94
2022-07-29T19:43:51.112Z,101159.16
2022-07-29T19:46:29.078Z,101165.44
2022-07-29T19:49:48.825Z,101166.66
2022-07-29T19:52:27.128Z,101173.34
2022-07-29T19:55:08.067Z,101175.22
2022-07-29T19:57:50.971Z,101173.75
2022-07-29T20:00:31.230Z,101170.84
2022-07-29T20:03:10.687Z,101172.94
2022-07-29T20:05:51.281Z,101172.94
2022-07-29T20:08:32.717Z,101169.63
2022-07-29T20:11:14.113Z,101171.88
2022-07-29T20:13:53.396Z,101168.09
2022-07-29T20:16:32.950Z,101170.38
2022-07-29T20:19:12.877Z,101164.53
2022-07-29T20:21:51.576Z,101159.97
2022-07-29T20:24:32.318Z,101162.47
2022-07-29T20:27:13.625Z,101155.78
2022-07-29T20:29:53.652Z,101159.50
2022-07-29T20:32:33.537Z,101165.75
2022-07-29T20:35:13.477Z,101165.53
2022-07-29T20:38:17.788Z,101168.63
2022-07-29T20:40:58.603Z,101178.59
2022-07-29T20:43:39.226Z,101176.94
2022-07-29T20:46:19.625Z,101186.22
2022-07-29T20:48:58.134Z,101181.88
2022-07-29T20:51:43.782Z,101188.50
2022-07-29T20:54:22.902Z,101195.13
2022-07-29T20:57:02.650Z,101197.22
2022-07-29T20:59:46.391Z,101204.69
2022-07-29T21:02:26.436Z,101206.28
2022-07-29T21:05:05.400Z,101214.56
2022-07-29T21:07:46.792Z,101229.91
2022-07-29T21:10:26.263Z,101233.00
2022-07-29T21:13:05.774Z,101240.19
2022-07-29T21:15:48.148Z,101233.97
2022-07-29T21:18:32.587Z,101241.41
2022-07-29T21:21:11.811Z,101251.78
2022-07-29T21:23:53.116Z,101237.78
2022-07-29T21:26:32.640Z,101244.94
2022-07-29T21:29:12.512Z,101238.25
2022-07-29T21:31:53.053Z,101239.28
2022-07-29T21:34:32.597Z,101241.31
2022-07-29T21:37:53.196Z,101252.06
2022-07-29T21:40:33.927Z,101244.56
2022-07-29T21:43:12.918Z,101252.66
2022-07-29T21:45:54.398Z,101254.50
2022-07-29T21:48:34.872Z,101251.19
2022-07-29T21:51:13.467Z,101247.19
2022-07-29T21:53:53.057Z,101240.72
2022-07-29T21:56:32.784Z,101240.69
2022-07-29T21:59:12.873Z,101242.75
2022-07-29T22:01:52.456Z,101234.78
2022-07-29T22:04:35.717Z,101238.47
2022-07-29T22:07:17.237Z,101233.91
2022-07-29T22:09:57.049Z,101244.06
2022-07-29T22:12:50.705Z,101251.09
2022-07-29T22:15:31.009Z,101257.00
2022-07-29T22:18:11.029Z,101251.22
2022-07-29T22:20:49.770Z,101255.72
2022-07-29T22:23:29.898Z,101250.97
2022-07-29T22:26:10.224Z,101239.19
2022-07-29T22:28:49.169Z,101241.22
2022-07-29T22:31:39.014Z,101236.88
2022-07-29T22:34:17.400Z,101236.25
2022-07-29T22:36:55.524Z,101242.84
2022-07-29T22:39:39.624Z,101249.81
2022-07-29T22:42:19.468Z,101242.38
2022-07-29T22:45:01.259Z,101241.75
2022-07-29T22:47:47.861Z,101238.03
2022-07-29T22:50:28.467Z,101237.00
2022-07-29T22:53:08.385Z,101238.66
2022-07-29T22:55:48.058Z,101237.78
2022-07-29T22:58:28.213Z,101242.72
2022-07-29T23:01:07.851Z,101240.84
2022-07-29T23:03:50.890Z,101240.22
2022-07-29T23:06:34.622Z,101236.22
2022-07-29T23:09:13.957Z,101236.88
2022-07-29T23:11:53.341Z,101234.19
2022-07-29T23:14:33.176Z,101230.28
2022-07-29T23:17:11.800Z,101218.69
2022-07-29T23:19:52.866Z,101225.72
2022-07-29T23:22:33.364Z,101226.56
2022-07-29T23:25:14.057Z,101223.44
2022-07-29T23:27:52.522Z,101231.84
2022-07-29T23:30:32.400Z,101215.72
2022-07-29T23:33:11.669Z,101216.06
2022-07-29T23:35:50.363Z,101222.03
2022-07-29T23:38:50.708Z,101220.38
2022-07-29T23:41:31.601Z,101225.75
2022-07-29T23:44:11.831Z,101218.06
2022-07-29T23:46:53.428Z,101217.22
2022-07-29T23:49:31.865Z,101220.94
2022-07-29T23:52:11.225Z,101219.63
2022-07-29T23:54:49.840Z,101214.63
2022-07-29T23:57:31.011Z,101218.75
